Thedford, NE

2:32 AM CST on February 12, 2016 (GMT -0600)
Thedford | | Change Station
CLOSE
Current Station
Airport
Location: Thedford,
Elevation: 2927 ft
Nearby Weather Stations
Active Advisory: Special Statement

Elev 2927 ft 41.96 °N, 100.57 °W | Updated 17 minutes ago

Overcast
Overcast
32 °F
Feels Like 27 °F
N
5
Wind Variable Wind from WNW

Today
High -- | Low -- °F
--% Chance of Precip.
Yesterday
High -- | Low -- °F
Precip. -- in
Pressure 30.22 in
Visibility 10.0 miles
Clouds Overcast 2000 ft
Windchill 27 °F
Dew Point 30 °F
Humidity 93%
Rainfall 0.00 in
Snow Depth Not available.
7:42 AM 6:10 PM
Waxing Crescent, 18% visible
METAR KTIF 120815Z AUTO 29004KT 10SM OVC020 00/M01 A3022 RMK AO2 T10031013
Pressure 30.22 in
Visibility 10.0 miles
Clouds Overcast 2000 ft
Windchill 27 °F
Dew Point 30 °F
Humidity 93%
Rainfall 0.00 in
Snow Depth Not available.
7:42 AM 6:10 PM
Waxing Crescent, 18% visible
METAR KTIF 120815Z AUTO 29004KT 10SM OVC020 00/M01 A3022 RMK AO2 T10031013

10-Day Weather Forecast

Almanac

Astronomy

Feb. 12, 2016 Rise Set
Actual Time
Civil Twilight
Nautical Twilight
Astronomical Twilight
Moon
Length of Visible Light
Length of Day
Tomorrow will be .
, % of the Moon is Illuminated

Today's Extremes

State Highs State Lows

Community

WunderPhotos

Upload Photos

1,892,284 photos uploaded!

WunderBlog® & News

Nearby

Air Quality

  Air Quality AQ Index Pollutant
Not available.

Snow Depth

Station Depth Elevation

Earthquake Activity

City Distance Mag. Time & Date
Minimum magnitude displayed is 2.5.

Coastal Water Temperatures

Place Temperature

Stations

Nearby Weather Stations

Station Location Temp. Windchill Dew Point Humidity Wind Precip. Elev Updated Type
                   

Watches & Warnings

Special Statement
Issued: 1:34 PM MST Feb. 11, 2016 – National Weather Service

... Patchy freezing drizzle possible tonight... then again Friday
night into midday Saturday...

An Arctic cold front will track west from northeastern
Nebraska... into central and western Nebraska tonight into Friday.
As this front backs into western and north central Nebraska from
the east... patchy freezing drizzle may develop across the area.
This front will stall across the Nebraska Panhandle Friday
night... then lift east on Saturday. As this front lifts east as a
warm front... patchy freezing drizzle will be possible once again
from the overnight hours Friday night... into Saturday morning.

Motorists planning travel tonight into tomorrow morning... as well
as Friday night into Saturday morning... should be prepared for
possible slick spots on roadways.


Clb